sensor_id;sensor_type;location;lat;lon;timestamp;temperature;humidity
72604;DHT22;60645;56.968;24.196;2022-11-15T15:44:23;15.90;69.70
72604;DHT22;60645;56.968;24.196;2022-11-15T15:46:55;15.80;68.70
72604;DHT22;60645;56.968;24.196;2022-11-15T15:49:27;15.80;68.00
72604;DHT22;60645;56.968;24.196;2022-11-15T15:51:54;15.70;70.60
72604;DHT22;60645;56.968;24.196;2022-11-15T15:54:21;15.60;70.50
72604;DHT22;60645;56.968;24.196;2022-11-15T15:56:50;15.50;68.90
72604;DHT22;60645;56.968;24.196;2022-11-15T15:59:21;15.50;68.60
72604;DHT22;60645;56.968;24.196;2022-11-15T16:01:51;15.50;70.00
72604;DHT22;60645;56.968;24.196;2022-11-15T16:04:22;15.50;67.90
72604;DHT22;60645;56.968;24.196;2022-11-15T16:07:03;15.50;70.80
72604;DHT22;60645;56.968;24.196;2022-11-15T16:09:31;15.40;69.00
72604;DHT22;60645;56.968;24.196;2022-11-15T16:12:17;15.50;68.70
72604;DHT22;60645;56.968;24.196;2022-11-15T16:17:19;15.60;68.10
72604;DHT22;60645;56.968;24.196;2022-11-15T16:19:47;15.50;66.80
72604;DHT22;60645;56.968;24.196;2022-11-15T16:22:24;15.50;66.10
72604;DHT22;60645;56.968;24.196;2022-11-15T16:24:53;15.50;67.10
72604;DHT22;60645;56.968;24.196;2022-11-15T16:27:22;15.50;65.00
72604;DHT22;60645;56.968;24.196;2022-11-15T16:29:53;15.40;64.60
72604;DHT22;60645;56.968;24.196;2022-11-15T16:32:38;15.50;63.40
72604;DHT22;60645;56.968;24.196;2022-11-15T16:35:21;15.40;63.50
72604;DHT22;60645;56.968;24.196;2022-11-15T16:38:15;15.30;64.60
72604;DHT22;60645;56.968;24.196;2022-11-15T16:40:51;15.30;63.80
72604;DHT22;60645;56.968;24.196;2022-11-15T16:43:28;15.20;63.90
72604;DHT22;60645;56.968;24.196;2022-11-15T16:45:58;15.10;64.50
72604;DHT22;60645;56.968;24.196;2022-11-15T16:48:39;15.20;64.70
72604;DHT22;60645;56.968;24.196;2022-11-15T16:51:25;15.10;63.90
72604;DHT22;60645;56.968;24.196;2022-11-15T16:53:58;15.10;64.50
72604;DHT22;60645;56.968;24.196;2022-11-15T16:56:29;15.10;61.80
72604;DHT22;60645;56.968;24.196;2022-11-15T16:58:59;15.10;61.70
72604;DHT22;60645;56.968;24.196;2022-11-15T17:01:51;15.10;60.20
72604;DHT22;60645;56.968;24.196;2022-11-15T17:04:19;15.10;61.50
72604;DHT22;60645;56.968;24.196;2022-11-15T17:06:49;14.90;61.60
72604;DHT22;60645;56.968;24.196;2022-11-15T17:09:23;14.90;62.20
72604;DHT22;60645;56.968;24.196;2022-11-15T17:11:53;14.90;62.50
72604;DHT22;60645;56.968;24.196;2022-11-15T17:14:21;14.80;62.20
72604;DHT22;60645;56.968;24.196;2022-11-15T17:16:52;14.90;61.80
72604;DHT22;60645;56.968;24.196;2022-11-15T17:19:29;14.80;61.10
72604;DHT22;60645;56.968;24.196;2022-11-15T17:22:12;14.80;62.00
72604;DHT22;60645;56.968;24.196;2022-11-15T17:24:45;14.80;60.80
72604;DHT22;60645;56.968;24.196;2022-11-15T17:27:16;14.80;61.10
72604;DHT22;60645;56.968;24.196;2022-11-15T17:29:46;14.70;61.70
72604;DHT22;60645;56.968;24.196;2022-11-15T17:32:18;14.70;61.40
72604;DHT22;60645;56.968;24.196;2022-11-15T17:34:55;14.80;60.40
72604;DHT22;60645;56.968;24.196;2022-11-15T17:37:24;14.70;60.70
72604;DHT22;60645;56.968;24.196;2022-11-15T17:39:51;14.70;61.50
72604;DHT22;60645;56.968;24.196;2022-11-15T17:42:21;14.70;60.90
72604;DHT22;60645;56.968;24.196;2022-11-15T17:44:50;14.70;60.90
72604;DHT22;60645;56.968;24.196;2022-11-15T17:47:18;14.70;60.60
72604;DHT22;60645;56.968;24.196;2022-11-15T17:50:08;14.70;60.30
72604;DHT22;60645;56.968;24.196;2022-11-15T17:52:38;14.70;61.30
72604;DHT22;60645;56.968;24.196;2022-11-15T17:55:05;14.60;60.90
72604;DHT22;60645;56.968;24.196;2022-11-15T17:57:33;14.60;61.50
72604;DHT22;60645;56.968;24.196;2022-11-15T18:00:06;14.60;61.10
72604;DHT22;60645;56.968;24.196;2022-11-15T18:02:38;14.60;61.50
72604;DHT22;60645;56.968;24.196;2022-11-15T18:05:08;14.50;61.80
72604;DHT22;60645;56.968;24.196;2022-11-15T18:07:41;14.60;60.90
72604;DHT22;60645;56.968;24.196;2022-11-15T18:10:08;14.50;61.00
72604;DHT22;60645;56.968;24.196;2022-11-15T18:12:43;14.50;61.40
72604;DHT22;60645;56.968;24.196;2022-11-15T18:15:12;14.40;63.10
72604;DHT22;60645;56.968;24.196;2022-11-15T18:17:39;14.50;62.20
72604;DHT22;60645;56.968;24.196;2022-11-15T18:20:07;14.50;60.30
72604;DHT22;60645;56.968;24.196;2022-11-15T18:22:38;14.50;61.30
72604;DHT22;60645;56.968;24.196;2022-11-15T18:25:06;14.40;61.70
72604;DHT22;60645;56.968;24.196;2022-11-15T18:27:33;14.40;60.50
72604;DHT22;60645;56.968;24.196;2022-11-15T18:30:01;14.50;61.90
72604;DHT22;60645;56.968;24.196;2022-11-15T18:32:28;14.40;61.50
72604;DHT22;60645;56.968;24.196;2022-11-15T18:34:58;14.40;61.50
72604;DHT22;60645;56.968;24.196;2022-11-15T18:37:26;14.50;61.20
72604;DHT22;60645;56.968;24.196;2022-11-15T18:39:53;14.40;61.00
72604;DHT22;60645;56.968;24.196;2022-11-15T18:42:20;14.50;60.40
72604;DHT22;60645;56.968;24.196;2022-11-15T18:44:48;14.50;60.00
72604;DHT22;60645;56.968;24.196;2022-11-15T18:47:20;14.40;60.60
72604;DHT22;60645;56.968;24.196;2022-11-15T18:49:48;14.40;59.10
72604;DHT22;60645;56.968;24.196;2022-11-15T18:52:17;14.40;59.80
72604;DHT22;60645;56.968;24.196;2022-11-15T18:54:44;14.40;59.80
72604;DHT22;60645;56.968;24.196;2022-11-15T18:57:12;14.40;56.50
72604;DHT22;60645;56.968;24.196;2022-11-15T18:59:38;14.40;57.40
72604;DHT22;60645;56.968;24.196;2022-11-15T19:02:07;14.40;57.30
72604;DHT22;60645;56.968;24.196;2022-11-15T19:04:34;14.40;56.60
72604;DHT22;60645;56.968;24.196;2022-11-15T19:07:02;14.40;56.00
72604;DHT22;60645;56.968;24.196;2022-11-15T19:09:32;14.40;55.50
72604;DHT22;60645;56.968;24.196;2022-11-15T19:11:59;14.40;56.60
72604;DHT22;60645;56.968;24.196;2022-11-15T19:14:27;14.40;56.00
72604;DHT22;60645;56.968;24.196;2022-11-15T19:16:55;14.30;54.10
72604;DHT22;60645;56.968;24.196;2022-11-15T19:19:26;14.30;55.70
72604;DHT22;60645;56.968;24.196;2022-11-15T19:21:56;14.30;56.70
72604;DHT22;60645;56.968;24.196;2022-11-15T19:24:24;14.30;55.00
72604;DHT22;60645;56.968;24.196;2022-11-15T19:26:52;14.30;54.70
72604;DHT22;60645;56.968;24.196;2022-11-15T19:29:20;14.30;55.80
72604;DHT22;60645;56.968;24.196;2022-11-15T19:31:47;14.30;56.50
72604;DHT22;60645;56.968;24.196;2022-11-15T19:34:14;14.20;56.80
72604;DHT22;60645;56.968;24.196;2022-11-15T19:36:43;14.10;55.60
72604;DHT22;60645;56.968;24.196;2022-11-15T19:39:12;14.20;56.90
72604;DHT22;60645;56.968;24.196;2022-11-15T19:41:41;14.10;56.90
72604;DHT22;60645;56.968;24.196;2022-11-15T19:44:11;14.10;56.10
72604;DHT22;60645;56.968;24.196;2022-11-15T19:46:39;14.10;56.90
72604;DHT22;60645;56.968;24.196;2022-11-15T19:49:07;14.00;57.30
72604;DHT22;60645;56.968;24.196;2022-11-15T19:51:37;14.00;57.60
72604;DHT22;60645;56.968;24.196;2022-11-15T19:54:05;14.10;57.80
72604;DHT22;60645;56.968;24.196;2022-11-15T19:56:34;14.00;57.60
72604;DHT22;60645;56.968;24.196;2022-11-15T19:59:06;14.10;58.50
72604;DHT22;60645;56.968;24.196;2022-11-15T20:01:34;14.00;58.20
72604;DHT22;60645;56.968;24.196;2022-11-15T20:04:04;14.00;57.10
72604;DHT22;60645;56.968;24.196;2022-11-15T20:06:34;14.00;57.60
72604;DHT22;60645;56.968;24.196;2022-11-15T20:09:02;14.00;56.90
72604;DHT22;60645;56.968;24.196;2022-11-15T20:11:29;14.00;55.60
72604;DHT22;60645;56.968;24.196;2022-11-15T20:13:57;14.00;57.30
72604;DHT22;60645;56.968;24.196;2022-11-15T20:16:25;13.90;58.70
72604;DHT22;60645;56.968;24.196;2022-11-15T20:18:53;14.00;62.20
72604;DHT22;60645;56.968;24.196;2022-11-15T20:21:20;14.00;59.90
72604;DHT22;60645;56.968;24.196;2022-11-15T20:23:47;14.10;58.30
72604;DHT22;60645;56.968;24.196;2022-11-15T20:26:19;14.10;58.80
72604;DHT22;60645;56.968;24.196;2022-11-15T20:28:48;14.10;59.70
72604;DHT22;60645;56.968;24.196;2022-11-15T20:31:17;14.10;60.00
72604;DHT22;60645;56.968;24.196;2022-11-15T20:33:44;14.10;59.40
72604;DHT22;60645;56.968;24.196;2022-11-15T20:36:16;14.00;59.90
72604;DHT22;60645;56.968;24.196;2022-11-15T20:38:44;14.10;59.90
72604;DHT22;60645;56.968;24.196;2022-11-15T20:41:12;14.20;58.70
72604;DHT22;60645;56.968;24.196;2022-11-15T20:43:43;14.10;59.70
72604;DHT22;60645;56.968;24.196;2022-11-15T20:46:11;14.10;59.10
72604;DHT22;60645;56.968;24.196;2022-11-15T20:48:42;14.10;58.70
72604;DHT22;60645;56.968;24.196;2022-11-15T20:51:18;14.00;61.40
72604;DHT22;60645;56.968;24.196;2022-11-15T20:53:47;14.00;61.00
72604;DHT22;60645;56.968;24.196;2022-11-15T20:56:19;14.10;59.50
72604;DHT22;60645;56.968;24.196;2022-11-15T20:58:47;14.00;59.30
72604;DHT22;60645;56.968;24.196;2022-11-15T21:01:18;14.00;59.90
72604;DHT22;60645;56.968;24.196;2022-11-15T21:03:52;14.10;59.70
72604;DHT22;60645;56.968;24.196;2022-11-15T21:06:19;14.00;61.60
72604;DHT22;60645;56.968;24.196;2022-11-15T21:08:48;14.00;60.80
72604;DHT22;60645;56.968;24.196;2022-11-15T21:11:36;14.10;60.90
72604;DHT22;60645;56.968;24.196;2022-11-15T21:14:22;14.10;65.80
